createdAt,value
2019-03-12T00:01:07.115Z,95567.67
2019-03-12T00:04:14.397Z,95563.48
2019-03-12T00:07:22.191Z,95576.06
2019-03-12T00:10:29.691Z,95570.23
2019-03-12T00:13:37.291Z,95584.42
2019-03-12T00:16:44.777Z,95575.98
2019-03-12T00:19:52.208Z,95572.89
2019-03-12T00:22:59.514Z,95568.41
2019-03-12T00:26:07.001Z,95573.66
2019-03-12T00:29:14.424Z,95584.14
2019-03-12T00:32:21.638Z,95600.92
2019-03-12T00:35:29.019Z,95600.15
2019-03-12T00:38:36.953Z,95607.72
2019-03-12T00:41:44.501Z,95607.73
2019-03-12T00:44:51.890Z,95614.52
2019-03-12T00:47:59.457Z,95616.06
2019-03-12T00:51:06.917Z,95610.59
2019-03-12T00:54:14.430Z,95612.95
2019-03-12T00:57:21.604Z,95605.38
2019-03-12T01:00:29.196Z,95602.97
2019-03-12T01:03:36.481Z,95608.53
2019-03-12T01:06:44.261Z,95606.62
2019-03-12T01:09:52.248Z,95607.97
2019-03-12T01:13:00.120Z,95617.67
2019-03-12T01:16:08.501Z,95602.47
2019-03-12T01:19:16.826Z,95621.84
2019-03-12T01:22:24.486Z,95634.41
2019-03-12T01:25:31.666Z,95633.37
2019-03-12T01:28:39.234Z,95645.36
2019-03-12T01:31:46.731Z,95646.66
2019-03-12T01:34:54.434Z,95647.98
2019-03-12T01:38:02.344Z,95645.86
2019-03-12T01:41:09.754Z,95650.80
2019-03-12T01:44:17.118Z,95657.61
2019-03-12T01:47:25.242Z,95652.09
2019-03-12T01:50:33.143Z,95658.15
2019-03-12T01:53:40.425Z,95663.13
2019-03-12T01:56:47.815Z,95651.85
2019-03-12T01:59:55.007Z,95656.54
2019-03-12T02:03:03.721Z,95665.67
2019-03-12T02:06:11.136Z,95656.02
2019-03-12T02:09:19.007Z,95661.02
2019-03-12T02:12:26.856Z,95670.69
2019-03-12T02:15:34.651Z,95671.42
2019-03-12T02:18:42.383Z,95681.92
2019-03-12T02:21:50.153Z,95680.31
2019-03-12T02:24:57.878Z,95678.76
2019-03-12T02:28:05.362Z,95687.42
2019-03-12T02:31:12.779Z,95687.42
2019-03-12T02:34:20.445Z,95704.20
2019-03-12T02:37:27.838Z,95699.69
2019-03-12T02:40:35.802Z,95703.12
2019-03-12T02:43:42.995Z,95701.81
2019-03-12T02:46:50.272Z,95711.76
2019-03-12T02:49:57.869Z,95712.82
2019-03-12T02:53:05.641Z,95712.22
2019-03-12T02:56:13.023Z,95722.69
2019-03-12T02:59:20.406Z,95724.51
2019-03-12T03:02:28.218Z,95736.25
2019-03-12T03:05:45.853Z,95739.94
2019-03-12T03:08:53.254Z,95750.06
2019-03-12T03:12:00.776Z,95754.02
2019-03-12T03:15:13.337Z,95757.12
2019-03-12T03:18:20.924Z,95748.99
2019-03-12T03:21:28.286Z,95762.66
2019-03-12T03:24:35.901Z,95758.22
2019-03-12T03:27:43.405Z,95772.81
2019-03-12T03:30:50.691Z,95772.81
2019-03-12T03:33:58.031Z,95775.80
2019-03-12T03:37:05.567Z,95779.14
2019-03-12T03:40:18.263Z,95779.08
2019-03-12T03:43:25.915Z,95782.27
2019-03-12T03:46:33.616Z,95777.45
2019-03-12T03:49:40.994Z,95781.96
2019-03-12T03:52:48.608Z,95781.51
2019-03-12T03:55:56.085Z,95791.16
2019-03-12T03:59:03.578Z,95784.09
2019-03-12T04:02:11.316Z,95786.67
2019-03-12T04:05:19.169Z,95786.37
2019-03-12T04:08:26.534Z,95789.26
2019-03-12T04:11:33.817Z,95794.18
2019-03-12T04:14:41.294Z,95794.77
2019-03-12T04:17:49.123Z,95801.47
2019-03-12T04:20:56.991Z,95808.87
2019-03-12T04:24:04.275Z,95805.44
2019-03-12T04:27:11.667Z,95807.64
2019-03-12T04:30:19.178Z,95810.22
2019-03-12T04:34:14.305Z,95814.38
2019-03-12T04:37:22.133Z,95818.62
2019-03-12T04:40:29.656Z,95816.31
2019-03-12T04:43:38.031Z,95821.58
2019-03-12T04:46:45.640Z,95822.78
2019-03-12T04:49:53.648Z,95824.92
2019-03-12T04:53:01.269Z,95824.13
2019-03-12T04:56:09.345Z,95831.25
2019-03-12T04:59:17.721Z,95827.33
2019-03-12T05:02:25.633Z,95826.46
2019-03-12T05:05:32.963Z,95830.86
2019-03-12T05:08:40.238Z,95832.13
2019-03-12T05:11:48.827Z,95825.44
2019-03-12T05:14:56.843Z,95827.77
2019-03-12T05:18:04.302Z,95826.50
2019-03-12T05:21:11.614Z,95832.55
2019-03-12T05:24:19.896Z,95830.73
2019-03-12T05:27:27.487Z,95833.35
2019-03-12T05:30:34.982Z,95836.77
2019-03-12T05:33:42.416Z,95842.88
2019-03-12T05:36:49.592Z,95842.75
2019-03-12T05:39:57.565Z,95843.30
2019-03-12T05:43:05.618Z,95843.09
2019-03-12T05:46:13.688Z,95845.71
2019-03-12T05:49:21.446Z,95846.22
2019-03-12T05:52:29.416Z,95848.53
2019-03-12T05:55:36.885Z,95848.59
2019-03-12T05:58:44.277Z,95850.70
2019-03-12T06:01:51.917Z,95854.86
2019-03-12T06:04:59.578Z,95856.55
2019-03-12T06:08:07.069Z,95864.13
2019-03-12T06:11:15.083Z,95857.14
2019-03-12T06:14:22.732Z,95862.16
2019-03-12T06:17:30.232Z,95857.23
2019-03-12T06:20:37.768Z,95865.36
2019-03-12T06:23:45.242Z,95856.56
2019-03-12T06:26:52.797Z,95860.55
2019-03-12T06:30:00.469Z,95858.88
2019-03-12T06:33:14.180Z,95860.77
2019-03-12T06:36:38.704Z,95866.66
2019-03-12T06:40:15.025Z,95858.31
2019-03-12T06:43:56.955Z,95854.34
2019-03-12T06:47:30.008Z,95855.98
2019-03-12T06:50:55.619Z,95851.44
2019-03-12T06:54:34.715Z,95851.74
2019-03-12T06:58:18.493Z,95849.69
2019-03-12T07:01:34.605Z,95848.83
2019-03-12T07:04:50.502Z,95851.99
2019-03-12T07:08:22.045Z,95856.47
2019-03-12T07:11:47.701Z,95857.33
2019-03-12T07:15:17.748Z,95859.44
2019-03-12T07:18:32.351Z,95865.98
2019-03-12T07:21:57.244Z,95864.67
2019-03-12T07:25:14.782Z,95855.73
2019-03-12T07:28:29.053Z,95854.13
2019-03-12T07:32:11.519Z,95854.91
2019-03-12T07:35:28.903Z,95857.84
2019-03-12T07:38:43.990Z,95869.14
2019-03-12T07:42:19.827Z,95863.48
2019-03-12T07:45:49.904Z,95852.22
2019-03-12T07:49:19.692Z,95849.08
2019-03-12T07:52:45.662Z,95845.19
2019-03-12T07:56:00.567Z,95845.77
2019-03-12T07:59:27.093Z,95846.81
2019-03-12T08:02:57.151Z,95846.80
2019-03-12T08:06:18.973Z,95847.33
2019-03-12T08:09:46.456Z,95828.62
2019-03-12T08:13:22.659Z,95832.52
2019-03-12T08:16:49.183Z,95827.47
2019-03-12T08:20:21.734Z,95820.51
2019-03-12T08:23:44.584Z,95816.82
2019-03-12T08:27:17.663Z,95815.95
2019-03-12T08:30:44.102Z,95808.54
2019-03-12T08:34:25.909Z,95807.64
2019-03-12T08:38:11.471Z,95800.09
2019-03-12T08:41:41.596Z,95793.63
2019-03-12T08:44:59.067Z,95791.55
2019-03-12T08:48:25.060Z,95789.89
2019-03-12T08:51:58.405Z,95786.89
2019-03-12T08:55:31.285Z,95787.48
2019-03-12T08:58:51.982Z,95781.08
2019-03-12T09:02:15.782Z,95778.66
2019-03-12T09:05:29.613Z,95777.16
2019-03-12T09:08:56.783Z,95757.80
2019-03-12T09:12:13.971Z,95759.67
2019-03-12T09:15:44.019Z,95756.47
2019-03-12T09:19:17.366Z,95758.98
2019-03-12T09:22:32.605Z,95752.40
2019-03-12T09:25:58.565Z,95754.22
2019-03-12T09:29:31.926Z,95752.04
2019-03-12T09:32:55.311Z,95739.02
2019-03-12T09:36:15.595Z,95741.25
2019-03-12T09:39:33.431Z,95745.61
2019-03-12T09:42:59.153Z,95734.78
2019-03-12T09:46:35.876Z,95732.13
2019-03-12T09:50:15.272Z,95728.48
2019-03-12T09:53:28.603Z,95730.86
2019-03-12T09:56:49.781Z,95721.44
2019-03-12T10:00:17.335Z,95709.89
2019-03-12T10:03:37.655Z,95711.03
2019-03-12T10:06:52.963Z,95706.85
2019-03-12T10:10:07.451Z,95698.19
2019-03-12T10:13:34.782Z,95687.64
2019-03-12T10:17:13.676Z,95684.31
2019-03-12T10:20:46.584Z,95683.69
2019-03-12T10:24:05.196Z,95679.27
2019-03-12T10:27:30.972Z,95681.91
2019-03-12T10:31:10.512Z,95671.98
2019-03-12T10:34:40.795Z,95657.39
2019-03-12T10:38:08.855Z,95650.88
2019-03-12T10:41:26.992Z,95646.42
2019-03-12T10:44:40.147Z,95643.64
2019-03-12T10:47:48.131Z,95639.72
2019-03-12T10:50:55.874Z,95637.55
2019-03-12T10:54:03.732Z,95631.25
2019-03-12T10:57:11.549Z,95631.88
2019-03-12T11:00:19.150Z,95622.45
2019-03-12T11:03:26.633Z,95621.28
2019-03-12T11:06:34.435Z,95621.36
2019-03-12T11:09:42.033Z,95613.23
2019-03-12T11:12:49.529Z,95609.27
2019-03-12T11:15:57.478Z,95605.38
2019-03-12T11:19:05.014Z,95587.25
2019-03-12T11:22:12.613Z,95579.56
2019-03-12T11:25:27.059Z,95569.52
2019-03-12T11:28:30.289Z,95570.17
2019-03-12T11:31:37.787Z,95563.11
2019-03-12T11:34:45.643Z,95554.05
2019-03-12T11:37:53.697Z,95541.43
2019-03-12T11:41:01.748Z,95536.98
2019-03-12T11:44:09.685Z,95531.45
2019-03-12T11:47:17.346Z,95521.81
2019-03-12T11:50:25.879Z,95516.14
2019-03-12T11:53:33.493Z,95509.09
2019-03-12T11:56:41.337Z,95491.59
2019-03-12T11:59:49.522Z,95482.55
2019-03-12T12:03:00.438Z,95474.50
2019-03-12T12:06:06.621Z,95463.50
2019-03-12T12:09:14.113Z,95464.13
2019-03-12T12:12:21.781Z,95451.66
2019-03-12T12:15:29.895Z,95435.50
2019-03-12T12:18:37.510Z,95435.16
2019-03-12T12:21:45.604Z,95417.54
2019-03-12T12:24:53.520Z,95418.84
2019-03-12T12:28:01.524Z,95418.25
2019-03-12T12:31:09.929Z,95407.77
2019-03-12T12:34:17.755Z,95395.14
2019-03-12T12:37:25.293Z,95394.97
2019-03-12T12:40:33.253Z,95389.40
2019-03-12T12:43:40.522Z,95377.34
2019-03-12T12:46:47.808Z,95365.91
2019-03-12T12:49:55.428Z,95366.77
2019-03-12T12:53:03.238Z,95357.86
2019-03-12T12:56:10.718Z,95346.75
2019-03-12T12:59:18.285Z,95333.03
2019-03-12T13:02:26.129Z,95339.46
2019-03-12T13:05:33.824Z,95331.63
2019-03-12T13:08:41.526Z,95327.84
2019-03-12T13:11:50.144Z,95320.02
2019-03-12T13:14:57.328Z,95311.16
2019-03-12T13:18:04.599Z,95305.61
2019-03-12T13:21:12.308Z,95302.84
2019-03-12T13:24:19.618Z,95300.45
2019-03-12T13:27:27.426Z,95290.20
2019-03-12T13:30:34.937Z,95290.66
2019-03-12T13:33:43.082Z,95277.92
2019-03-12T13:36:50.466Z,95274.87
2019-03-12T13:39:58.395Z,95280.20
2019-03-12T13:43:06.650Z,95262.02
2019-03-12T13:46:14.547Z,95257.10
2019-03-12T13:49:22.524Z,95245.19
2019-03-12T13:52:30.028Z,95244.32
2019-03-12T13:55:37.415Z,95238.83
2019-03-12T13:58:45.043Z,95227.73
2019-03-12T14:01:52.854Z,95221.11
2019-03-12T14:05:00.530Z,95214.93
2019-03-12T14:08:08.166Z,95203.36
2019-03-12T14:11:16.087Z,95194.40
2019-03-12T14:14:23.797Z,95189.41
2019-03-12T14:17:31.334Z,95189.56
2019-03-12T14:20:41.563Z,95180.91
2019-03-12T14:23:59.746Z,95178.92
2019-03-12T14:27:07.977Z,95164.28
2019-03-12T14:30:15.928Z,95153.80
2019-03-12T14:33:23.924Z,95146.73
2019-03-12T14:36:32.133Z,95136.88
2019-03-12T14:39:40.400Z,95136.36
2019-03-12T14:42:48.908Z,95117.39
2019-03-12T14:45:56.665Z,95121.03
2019-03-12T14:49:06.206Z,95120.01
2019-03-12T14:52:44.445Z,95114.02
2019-03-12T14:55:52.295Z,95111.72
2019-03-12T14:59:00.526Z,95113.25
2019-03-12T15:02:08.532Z,95101.95
2019-03-12T15:05:16.657Z,95090.00
2019-03-12T15:08:24.328Z,95088.34
2019-03-12T15:11:32.469Z,95068.91
2019-03-12T15:14:40.379Z,95061.47
2019-03-12T15:17:49.322Z,95050.61
2019-03-12T15:20:56.890Z,95046.08
2019-03-12T15:24:04.581Z,95040.89
2019-03-12T15:27:13.441Z,95024.27
2019-03-12T15:30:21.262Z,95024.55
2019-03-12T15:33:29.423Z,95020.11
2019-03-12T15:36:37.672Z,95013.25
2019-03-12T15:39:45.717Z,95014.22
2019-03-12T15:42:53.816Z,95006.31
2019-03-12T15:46:02.330Z,94996.88
2019-03-12T15:49:10.439Z,94986.61
2019-03-12T15:52:18.795Z,94982.95
2019-03-12T15:55:26.936Z,94982.39
2019-03-12T15:58:36.858Z,94972.86
2019-03-12T16:01:44.568Z,94965.48
2019-03-12T16:04:52.951Z,94949.84
2019-03-12T16:08:01.219Z,94944.67
2019-03-12T16:11:09.704Z,94937.80
2019-03-12T16:14:17.355Z,94936.19
2019-03-12T16:17:25.530Z,94932.06
2019-03-12T16:20:34.146Z,94922.44
2019-03-12T16:23:42.126Z,94915.98
2019-03-12T16:26:50.116Z,94915.33
2019-03-12T16:29:58.252Z,94912.13
2019-03-12T16:33:05.930Z,94905.28
2019-03-12T16:36:15.350Z,94900.41
2019-03-12T16:39:24.446Z,94895.23
2019-03-12T16:43:39.292Z,94890.87
2019-03-12T16:46:56.308Z,94878.42
2019-03-12T16:50:35.321Z,94866.72
2019-03-12T16:53:44.209Z,94861.64
2019-03-12T16:56:52.155Z,94858.23
2019-03-12T17:00:00.578Z,94851.30
2019-03-12T17:03:08.600Z,94846.91
2019-03-12T17:06:17.270Z,94848.02
2019-03-12T17:09:25.415Z,94834.48
2019-03-12T17:12:33.176Z,94830.53
2019-03-12T17:15:40.893Z,94827.79
2019-03-12T17:18:50.747Z,94813.31
2019-03-12T17:21:58.564Z,94809.20
2019-03-12T17:25:06.814Z,94797.18
2019-03-12T17:28:14.398Z,94793.03
2019-03-12T17:31:22.701Z,94787.36
2019-03-12T17:34:35.722Z,94780.11
2019-03-12T17:37:41.455Z,94776.60
2019-03-12T17:40:49.371Z,94779.41
2019-03-12T17:43:58.018Z,94776.46
2019-03-12T17:47:06.403Z,94777.78
2019-03-12T17:50:14.409Z,94768.78
2019-03-12T17:53:21.862Z,94761.38
2019-03-12T17:56:29.970Z,94759.50
2019-03-12T17:59:38.679Z,94751.00
2019-03-12T18:02:46.715Z,94746.62
2019-03-12T18:05:54.165Z,94734.55
2019-03-12T18:09:01.758Z,94733.44
2019-03-12T18:12:09.853Z,94730.89
2019-03-12T18:15:19.584Z,94730.75
2019-03-12T18:18:28.126Z,94717.52
2019-03-12T18:21:36.597Z,94716.81
2019-03-12T18:24:44.810Z,94711.02
2019-03-12T18:27:57.614Z,94702.13
2019-03-12T18:31:06.933Z,94699.50
2019-03-12T18:34:15.477Z,94694.84
2019-03-12T18:37:23.647Z,94692.54
2019-03-12T18:40:32.319Z,94689.81
2019-03-12T18:43:40.626Z,94686.01
2019-03-12T18:46:48.862Z,94681.92
2019-03-12T18:49:56.965Z,94669.37
2019-03-12T18:53:04.634Z,94662.59
2019-03-12T18:56:12.972Z,94660.75
2019-03-12T18:59:21.064Z,94654.96
2019-03-12T19:02:28.674Z,94645.91
2019-03-12T19:05:36.563Z,94641.16
2019-03-12T19:08:47.916Z,94644.78
2019-03-12T19:11:54.809Z,94633.11
2019-03-12T19:15:02.375Z,94620.87
2019-03-12T19:18:10.688Z,94611.64
2019-03-12T19:21:18.652Z,94606.47
2019-03-12T19:24:26.558Z,94600.06
2019-03-12T19:27:35.166Z,94599.06
2019-03-12T19:30:43.507Z,94597.79
2019-03-12T19:33:53.114Z,94590.55
2019-03-12T19:37:01.405Z,94568.57
2019-03-12T19:40:13.272Z,94574.87
2019-03-12T19:43:21.361Z,94567.16
2019-03-12T19:46:29.316Z,94559.57
2019-03-12T19:49:37.561Z,94552.30
2019-03-12T19:52:45.147Z,94540.68
2019-03-12T19:55:53.471Z,94537.31
2019-03-12T19:59:01.486Z,94531.14
2019-03-12T20:02:16.051Z,94522.84
2019-03-12T20:05:20.096Z,94522.46
2019-03-12T20:08:28.477Z,94517.95
2019-03-12T20:12:30.855Z,94501.97
2019-03-12T20:16:41.608Z,94506.19
2019-03-12T20:21:04.212Z,94499.81
2019-03-12T20:25:31.165Z,94498.96
2019-03-12T20:29:19.473Z,94491.45
2019-03-12T20:33:33.124Z,94480.34
2019-03-12T20:37:42.612Z,94474.31
2019-03-12T20:42:08.821Z,94458.52
2019-03-12T20:46:40.696Z,94450.24
2019-03-12T20:50:52.421Z,94440.40
2019-03-12T20:54:55.857Z,94446.67
2019-03-12T20:58:54.911Z,94442.08
2019-03-12T21:02:49.029Z,94424.48
2019-03-12T21:06:38.809Z,94416.20
2019-03-12T21:10:56.456Z,94402.84
2019-03-12T21:14:57.070Z,94404.15
2019-03-12T21:19:16.204Z,94394.84
2019-03-12T21:23:05.095Z,94377.82
2019-03-12T21:27:01.983Z,94384.13
2019-03-12T21:30:11.328Z,94382.20
2019-03-12T21:33:17.836Z,94372.05
2019-03-12T21:36:25.955Z,94363.48
2019-03-12T21:39:33.811Z,94359.72
2019-03-12T21:42:41.589Z,94348.81
2019-03-12T21:45:49.174Z,94348.02
2019-03-12T21:48:56.813Z,94337.53
2019-03-12T21:52:05.333Z,94331.92
2019-03-12T21:55:13.236Z,94334.19
2019-03-12T21:58:23.352Z,94311.41
2019-03-12T22:01:30.543Z,94303.82
2019-03-12T22:04:38.267Z,94304.17
2019-03-12T22:07:46.557Z,94294.63
2019-03-12T22:10:54.635Z,94293.61
2019-03-12T22:14:02.685Z,94294.98
2019-03-12T22:17:11.175Z,94285.00
2019-03-12T22:20:19.011Z,94276.73
2019-03-12T22:23:32.183Z,94275.60
2019-03-12T22:26:40.323Z,94266.94
2019-03-12T22:29:47.994Z,94260.95
2019-03-12T22:32:55.640Z,94250.87
2019-03-12T22:36:03.043Z,94239.00
2019-03-12T22:39:10.598Z,94237.89
2019-03-12T22:42:18.809Z,94222.06
2019-03-12T22:45:26.541Z,94213.85
2019-03-12T22:48:34.190Z,94206.50
2019-03-12T22:51:41.606Z,94210.98
2019-03-12T22:54:49.229Z,94204.44
2019-03-12T22:57:56.796Z,94193.98
2019-03-12T23:01:04.802Z,94181.61
2019-03-12T23:04:12.400Z,94188.73
2019-03-12T23:07:19.836Z,94183.53
2019-03-12T23:10:28.401Z,94176.05
2019-03-12T23:13:36.217Z,94171.79
2019-03-12T23:16:44.024Z,94166.45
2019-03-12T23:19:51.933Z,94165.04
2019-03-12T23:22:59.574Z,94159.38
2019-03-12T23:26:06.974Z,94158.39
2019-03-12T23:29:14.802Z,94154.22
2019-03-12T23:32:22.726Z,94147.96
2019-03-12T23:35:31.714Z,94142.41
2019-03-12T23:38:40.745Z,94132.05
2019-03-12T23:41:48.292Z,94131.88
2019-03-12T23:44:55.675Z,94135.13
2019-03-12T23:48:03.281Z,94131.58
2019-03-12T23:51:10.766Z,94126.09
2019-03-12T23:54:18.260Z,94117.36
2019-03-12T23:57:25.927Z,94122.45
